Palmdale, Minnesota
Current Conditions -  °F | °C
As of 8:35 PM on Tuesday 25 Nov 2014 (Local Time) from KOEO Reporting Station
Overcast Overcast  
Wind Chill: 18°   Ceiling: 5000
Heat Index: 24°   Visibility: 10mi
Dew Point: 18°   Wind: 5mph
Humidity: 78%   Direction: 130°SE
Pressure: 30.06"   Gusts: NA
Location:  45.4629°N, 92.7113°W
Report Text: KOEO 260235Z AUTO 13004KT 10SM OVC050 M05/M08 A3006 RMK AO2 T10471080
Loading
Personal Weather Stations






























Interactive Weather Map New forecast layout! Learn more

10-Day Weather Forecast

Advertisements
Track Severe Weather on mobile